Aviation Digital Data Service (ADDS)

Output produced by METARs form (1905 UTC 18 June 2019)
found at http://www.aviationweather.gov/metar/data/
 
DAUA 181800Z 20003KT CAVOK 42/// Q1008
TAF DAUA 181700Z 1818/1918 24010KT CAVOK 
     BECMG 1819/1821 VRB02KT 
     BECMG 1905/1908 16012KT 
     PROB30 1907/1911 16022KT 5000 DRSA 
     BECMG 1916/1918 VRB02KT
       
DABB 181830Z 04008KT CAVOK 22/19 Q1014
TAF DABB 181700Z 1818/1918 04008KT CAVOK
       
DABT 181800Z 04010KT 9999 FEW030 31/10 Q1017
TAF DABT 181700Z 1818/1918 28008KT CAVOK
       
DAOR 181800Z 14007KT 3000 SA NSC 37/// Q1015
TAF DAOR 181700Z 1818/1903 14012KT 6000 NSC 
     TEMPO 1818/1821 3000 HZ
       
DAAE 181800Z 06005KT CAVOK 24/21 Q1014
TAF DAAE 181700Z 1818/1918 06008KT CAVOK
       
DAUB 181800Z 17005KT CAVOK 38/10 Q1012
TAF DAUB 181700Z 1818/1918 16010KT CAVOK
       
DATM 181800Z 33012KT CAVOK 44/// Q1009
TAF DATM 181700Z 1818/1903 36008KT CAVOK
       
DAAD 181800Z 07009KT 8000 FEW030 37/14 Q1013
TAF DAAD 181700Z 1818/1903 10008KT 8000 FEW030 
     PROB30 
     TEMPO 1818/1821 FEW030CB
       
DAOI 181800Z 35011KT CAVOK 32/14 Q1012
TAF COR DAOI 181700Z 1818/1918 34010KT CAVOK 
     BECMG 1822/1824 24006KT 9999 SCT020 
     PROB40 
     TEMPO 1822/1906 3000 BR SCT010 
     PROB30 
     TEMPO 1900/1906 0500 FG
       
DABC 181830Z 05007KT CAVOK 27/09 Q1017
TAF DABC 181700Z 1818/1918 02008KT CAVOK
       
DAAG 181830Z 04005KT 010V080 CAVOK 25/18 Q1014
TAF DAAG 181700Z 1818/1918 VRB02KT CAVOK 
     PROB40 
     TEMPO 1822/1906 FEW030CB 
     PROB30 
     TEMPO 1902/1906 VRB15G25KT 5000 -TSRA FEW030CB 
     PROB30 
     TEMPO 1906/1909 BKN015 
     BECMG 1908/1911 32010KT 
     BECMG 1914/1918 VRB02KT
       
DAAJ 181800Z 27007KT 8000 SCT046 40/04 Q1014
TAF DAAJ 181700Z 1818/1918 34008KT 8000 SCT046 
     PROB30 
     TEMPO 1818/1822 5000 HZ FEW040TCU
       
DAUE 181800Z 06006KT CAVOK 38/05 Q1012
DAUO 181800Z 07006KT CAVOK 37/09 Q1012
TAF DAUO 181700Z 1818/1903 10008KT CAVOK
       
DAUG 181800Z 10008KT CAVOK 37/04 Q1015
TAF DAUG 181700Z 1818/1918 12010KT CAVOK 
     PROB30 
     TEMPO 1914/1918 5000 HZ
       
DAUH 181830Z 05010KT CAVOK 38/08 Q1012
TAF DAUH 181700Z 1818/1918 10008KT CAVOK
       
DAAP 181800Z 31012KT CAVOK 41/02 Q1011
TAF DAAP 181700Z 1818/1903 30014KT CAVOK 
     BECMG 1821/1824 VRB02KT
       
DAUZ 181800Z 30011KT 8000 NSC 39/// Q1011
TAF DAUZ 181700Z 1818/1918 34014KT 8000 NSC 
     PROB30 
     TEMPO 1820/1902 4000 HZ 
     BECMG 1820/1823 08012KT 
     PROB30 1902/1908 10015G25KT 5000 DRSA
       
DAUI 181800Z 00000KT CAVOK 43/// Q1008
TAF DAUI 181700Z 1818/1918 34008KT CAVOK 
     BECMG 1821/1824 06012KT 
     PROB40 1906/1911 10022KT 5000 DRSA
       
DAAV 181800Z 34004KT CAVOK 24/17 Q1014
TAF DAAV 181700Z 1818/1918 01008KT CAVOK
       
DAUL 181800Z 19008KT CAVOK 35/15 Q1016
TAF DAUL 181700Z 1818/1903 16008KT CAVOK
       
DAOV 181800Z 35011KT CAVOK 28/16 Q1015
TAF DAOV 181700Z 1818/1903 34012KT CAVOK 
     BECMG 1822/1824 VRB02KT
       
DAAY 181800Z 17016KT 7000 NSC 34/02 Q1019
TAF DAAY 181700Z 1818/1903 20014KT 6000 NSC 
     TEMPO 1818/1822 18020KT 
     PROB40 
     TEMPO 1818/1822 3000 DRSA
       
DAOO 181830Z 34008KT CAVOK 22/18 Q1014
TAF COR DAOO 181700Z 1818/1918 32011KT 9999 FEW026 
     BECMG 1822/1824 24008KT 
     PROB40 
     TEMPO 1900/1906 2000 BR 
     BECMG 1912/1915 33012KT CAVOK
       
DAOL 181800Z 35012KT 8000 NSC 25/17 Q1014
DAUU 181800Z 09011KT CAVOK 39/03 Q1011
TAF DAUU 181700Z 1818/1903 10014KT CAVOK
       
DAAS 181800Z 02009KT CAVOK 30/08 Q1018
TAF DAAS 181700Z 1818/1918 24008KT CAVOK
       
DAAT 181830Z 04005KT 360V090 9999 SCT046TCU SCT100 35/M01 Q1020
TAF DAAT 181700Z 1818/1918 35008KT 9999 SCT046 SCT100 
     TEMPO 1818/1822 FEW040CB SCT046TCU 
     PROB30 
     TEMPO 1818/1820 35015G25KT 5000 -TSRA FEW040CB 
     PROB40 
     TEMPO 1914/1918 FEW040CB SCT046TCU
       
DABS 181800Z 06010KT 9999 SCT040 30/09 Q1017
TAF DABS 181700Z 1818/1918 02010KT CAVOK
       
DAOB 181800Z 32007KT 9999 FEW026 31/09 Q1017
TAF DAOB 181700Z 1818/1918 34010KT 9999 FEW026 
     PROB30 
     TEMPO 1818/1821 FEW030TCU 
     BECMG 1821/1824 VRB02KT 
     PROB30 
     TEMPO 1902/1906 BKN015 
     BECMG 1908/1911 24012KT 
     PROB30 
     TEMPO 1914/1918 5000 HZ
       
DAFH 181800Z 12008KT CAVOK 35/08 Q1017
TAF DAFH 181700Z 1818/1903 14008KT CAVOK
       
DAUT 181800Z 13005KT CAVOK 42/// Q1009
TAF DAUT 181700Z 1818/1903 14008KT CAVOK
       
DAOF 181800Z 28017KT CAVOK 37/04 Q1011
TAF DAOF 181700Z 1818/1903 28012KT CAVOK
       
DAON 181830Z 34012KT CAVOK 22/16 Q1015
TAF COR DAON 181700Z 1818/1918 35011KT CAVOK 
     BECMG 1821/1823 VRB02KT 
     BECMG 1910/1912 32012KT
       
DAUK 181800Z 06005KT CAVOK 38/10 Q1012
TAF DAUK 181700Z 1818/1903 08008KT CAVOK